Time;durP1;ratioP1;P1;durP2;ratioP2;P2;SDS_P1;SDS_P2;PMS_P1;PMS_P2;Temp;Humidity;BMP_temperature;BMP_pressure;BME280_temperature;BME280_humidity;BME280_pressure;Samples;Min_cycle;Max_cycle;Signal;HPM_P1;HPM_P2
2022/11/04 00:01:50;;;;;;;2.60;1.43;;;11.70;98.00;;;;;;5032061;28;20515;-68
2022/11/04 00:04:18;;;;;;;2.60;1.60;;;11.80;98.00;;;;;;5014656;28;20449;-68
2022/11/04 00:06:47;;;;;;;2.40;1.63;;;11.70;98.00;;;;;;5032429;28;20531;-68
2022/11/04 00:09:17;;;;;;;3.37;1.73;;;11.70;98.00;;;;;;5031901;28;20512;-68
2022/11/04 00:14:30;;;;;;;2.10;1.63;;;11.60;98.00;;;;;;5032801;28;20456;-68
2022/11/04 00:30:55;;;;;;;1.90;1.20;;;11.60;98.00;;;;;;5031513;28;20476;-68
2022/11/04 00:33:26;;;;;;;1.87;1.50;;;11.70;98.00;;;;;;5031418;28;20835;-68
2022/11/04 00:35:55;;;;;;;1.40;1.20;;;11.60;98.00;;;;;;5031620;28;20465;-68
2022/11/04 00:38:24;;;;;;;1.50;1.20;;;11.70;98.00;;;;;;5031321;28;20980;-68
2022/11/04 00:40:53;;;;;;;1.30;1.20;;;11.60;98.00;;;;;;5031404;28;20551;-68
2022/11/04 00:43:20;;;;;;;2.73;1.67;;;11.60;98.00;;;;;;5031354;28;20461;-68
2022/11/04 00:45:47;;;;;;;2.50;1.70;;;11.60;98.00;;;;;;5031038;28;20972;-68
2022/11/04 00:48:14;;;;;;;1.57;1.37;;;11.60;98.00;;;;;;5031183;28;20467;-68
2022/11/04 00:50:42;;;;;;;1.33;1.27;;;11.50;98.00;;;;;;5031035;28;20469;-68
2022/11/04 00:53:09;;;;;;;1.77;1.20;;;11.50;98.00;;;;;;5031363;28;20969;-68
2022/11/04 00:55:38;;;;;;;1.50;1.10;;;11.50;98.00;;;;;;5031401;28;20460;-68
2022/11/04 00:58:05;;;;;;;1.50;1.20;;;11.50;98.00;;;;;;5031177;28;20450;-68
2022/11/04 01:00:32;;;;;;;1.40;1.20;;;11.50;98.00;;;;;;5013821;28;20499;-68
2022/11/04 01:03:01;;;;;;;2.00;1.33;;;11.50;98.00;;;;;;5031552;28;20508;-68
2022/11/04 01:05:28;;;;;;;1.50;1.30;;;11.50;98.00;;;;;;5013891;28;20515;-68
2022/11/04 01:07:57;;;;;;;1.30;1.30;;;11.50;98.00;;;;;;5013607;28;20460;-68
2022/11/04 01:10:24;;;;;;;1.50;1.10;;;11.50;98.00;;;;;;5031264;28;20487;-68
2022/11/04 01:12:54;;;;;;;1.83;1.37;;;11.60;98.00;;;;;;5031025;28;20464;-69
2022/11/04 01:15:21;;;;;;;1.63;1.30;;;11.60;98.00;;;;;;5031153;28;20464;-68
2022/11/04 01:17:48;;;;;;;2.10;1.40;;;11.60;98.00;;;;;;5030820;28;20468;-69
2022/11/04 01:20:16;;;;;;;2.37;1.43;;;11.60;98.00;;;;;;5030948;28;20999;-68
2022/11/04 01:22:43;;;;;;;1.40;1.10;;;11.60;98.00;;;;;;5030852;28;20544;-69
2022/11/04 01:25:10;;;;;;;1.40;1.07;;;11.60;98.00;;;;;;5030947;28;20482;-69
2022/11/04 01:27:38;;;;;;;1.83;1.30;;;11.60;98.00;;;;;;5031037;28;20472;-68
2022/11/04 01:30:09;;;;;;;1.40;1.13;;;11.70;98.00;;;;;;5030862;28;21001;-68
2022/11/04 01:32:36;;;;;;;3.60;1.60;;;11.70;98.00;;;;;;5030569;28;20459;-69
2022/11/04 01:35:04;;;;;;;1.60;1.20;;;11.70;98.00;;;;;;5030873;28;20832;-68
2022/11/04 01:37:31;;;;;;;1.30;1.20;;;11.70;98.00;;;;;;5030784;28;20470;-68
2022/11/04 01:39:58;;;;;;;1.60;1.30;;;11.60;98.00;;;;;;5030739;28;20467;-68
2022/11/04 01:42:25;;;;;;;1.67;1.23;;;11.70;98.00;;;;;;5031327;28;20469;-68
2022/11/04 01:44:56;;;;;;;1.20;1.00;;;11.60;98.00;;;;;;5030931;28;20907;-68
2022/11/04 01:47:29;;;;;;;1.70;1.20;;;11.60;98.00;;;;;;5030593;28;20953;-68
2022/11/04 01:50:00;;;;;;;2.40;1.37;;;11.60;98.00;;;;;;5030906;28;20870;-68
2022/11/04 01:52:32;;;;;;;3.03;1.70;;;11.50;98.00;;;;;;5030376;28;20618;-68
2022/11/04 01:55:03;;;;;;;1.63;1.10;;;11.50;98.00;;;;;;5030846;28;20835;-68
2022/11/04 01:57:36;;;;;;;1.70;1.63;;;11.50;98.00;;;;;;5031063;28;20446;-69
2022/11/04 02:00:07;;;;;;;1.60;1.13;;;11.50;98.00;;;;;;5034507;28;20459;-68
2022/11/04 02:02:39;;;;;;;1.80;1.40;;;11.50;98.00;;;;;;5034326;28;20939;-68
2022/11/04 02:05:07;;;;;;;1.63;1.53;;;11.50;98.00;;;;;;5034221;28;20459;-68
2022/11/04 02:07:36;;;;;;;1.63;1.20;;;11.50;98.00;;;;;;5033963;28;20457;-68
2022/11/04 02:10:04;;;;;;;2.07;1.13;;;11.40;98.00;;;;;;5034023;28;20842;-68
2022/11/04 02:12:48;;;;;;;1.53;1.30;;;11.40;98.00;;;;;;5033906;28;20458;-68
2022/11/04 02:15:17;;;;;;;1.80;1.20;;;11.40;98.00;;;;;;5033947;28;20533;-69
2022/11/04 02:18:01;;;;;;;1.93;1.30;;;11.40;98.00;;;;;;5033755;28;20869;-68
2022/11/04 02:20:41;;;;;;;2.43;1.40;;;11.50;98.00;;;;;;5033627;28;20484;-69
2022/11/04 02:23:45;;;;;;;1.30;1.13;;;11.50;98.00;;;;;;5033870;28;20867;-68
2022/11/04 02:26:53;;;;;;;2.33;1.60;;;11.40;98.00;;;;;;5030993;28;20459;-68
2022/11/04 02:29:45;;;;;;;1.30;1.20;;;11.40;98.00;;;;;;5033571;28;20462;-68
2022/11/04 02:32:19;;;;;;;1.60;1.00;;;11.40;98.00;;;;;;5033322;28;20487;-68
2022/11/04 02:35:01;;;;;;;1.40;1.23;;;11.40;98.00;;;;;;5033551;28;20456;-68
2022/11/04 02:37:36;;;;;;;2.13;1.40;;;11.40;98.00;;;;;;5033319;28;20458;-69
2022/11/04 02:40:13;;;;;;;1.63;1.10;;;11.40;98.00;;;;;;5033487;28;20472;-69
2022/11/04 02:42:50;;;;;;;1.40;1.20;;;11.50;98.00;;;;;;5033331;28;21032;-69
2022/11/04 02:45:23;;;;;;;2.23;1.10;;;11.50;98.00;;;;;;5033396;28;20464;-68
2022/11/04 02:47:57;;;;;;;3.10;1.20;;;11.40;98.00;;;;;;5033375;28;20459;-68
2022/11/04 02:50:31;;;;;;;1.50;1.10;;;11.40;98.00;;;;;;5033337;28;20461;-68
2022/11/04 02:53:03;;;;;;;1.77;1.30;;;11.50;98.00;;;;;;5033415;28;20948;-68
2022/11/04 02:55:35;;;;;;;1.20;1.00;;;11.50;98.00;;;;;;5033292;28;20480;-68
2022/11/04 02:58:06;;;;;;;1.40;1.20;;;11.40;98.00;;;;;;5033278;28;20466;-68
2022/11/04 03:00:37;;;;;;;1.90;1.33;;;11.40;98.00;;;;;;5015662;28;20702;-68
2022/11/04 03:03:09;;;;;;;3.03;1.67;;;11.40;98.00;;;;;;5032915;28;20470;-68
2022/11/04 03:05:39;;;;;;;1.43;1.10;;;11.40;98.00;;;;;;5032933;28;20463;-68
2022/11/04 03:08:13;;;;;;;1.30;1.20;;;11.50;98.00;;;;;;5032747;28;20468;-68
2022/11/04 03:10:43;;;;;;;1.40;1.17;;;11.40;98.00;;;;;;5015391;28;20540;-68
2022/11/04 03:13:14;;;;;;;1.20;0.90;;;11.40;98.00;;;;;;5032718;28;20465;-68
2022/11/04 03:15:50;;;;;;;1.40;1.20;;;11.40;98.00;;;;;;5032706;28;20466;-68
2022/11/04 03:18:23;;;;;;;1.40;1.20;;;11.40;98.00;;;;;;5032737;28;20510;-68
2022/11/04 03:20:51;;;;;;;2.70;1.27;;;11.20;98.00;;;;;;5032700;28;20494;-68
2022/11/04 03:23:19;;;;;;;1.60;1.03;;;11.30;98.00;;;;;;5032474;28;20469;-68
2022/11/04 03:25:48;;;;;;;1.93;1.27;;;11.40;98.00;;;;;;5032589;28;20458;-68
2022/11/04 03:28:25;;;;;;;3.63;1.50;;;11.30;98.00;;;;;;5032373;28;20954;-68
2022/11/04 03:30:58;;;;;;;1.40;1.30;;;11.30;98.00;;;;;;5032577;28;20510;-68
2022/11/04 03:33:30;;;;;;;1.40;1.23;;;11.20;98.00;;;;;;5032352;28;20502;-68
2022/11/04 03:35:58;;;;;;;1.20;1.13;;;11.10;98.00;;;;;;5032488;28;20466;-68
2022/11/04 03:38:25;;;;;;;2.07;1.30;;;11.00;98.00;;;;;;5032188;28;20463;-68
2022/11/04 03:40:52;;;;;;;1.30;1.20;;;10.90;98.00;;;;;;5032330;28;20491;-68
2022/11/04 03:43:24;;;;;;;1.60;1.20;;;10.70;98.00;;;;;;5031875;28;20570;-68
2022/11/04 03:45:52;;;;;;;1.20;1.20;;;10.70;98.00;;;;;;5032584;28;20893;-68
2022/11/04 03:48:20;;;;;;;1.40;1.30;;;10.80;98.00;;;;;;5032582;28;20461;-68
2022/11/04 03:50:49;;;;;;;1.33;1.10;;;10.70;98.00;;;;;;5032165;28;20473;-68
2022/11/04 03:53:21;;;;;;;1.40;1.10;;;10.60;98.00;;;;;;5031914;28;20462;-68
2022/11/04 03:56:02;;;;;;;1.70;1.50;;;10.60;98.00;;;;;;5014681;28;20501;-68
2022/11/04 03:58:42;;;;;;;1.30;1.17;;;10.60;98.00;;;;;;5031876;28;20457;-68
2022/11/04 04:01:18;;;;;;;1.30;1.10;;;10.60;98.00;;;;;;5032002;28;20874;-68
2022/11/04 04:03:53;;;;;;;2.17;1.37;;;10.60;98.00;;;;;;5031812;28;20465;-68
2022/11/04 04:06:26;;;;;;;1.20;1.03;;;10.50;98.00;;;;;;5031879;28;20461;-69
2022/11/04 04:08:57;;;;;;;2.13;1.23;;;10.50;98.00;;;;;;5031880;28;20458;-68
2022/11/04 04:11:36;;;;;;;1.20;1.10;;;10.50;98.00;;;;;;5031696;28;20447;-68
2022/11/04 04:14:07;;;;;;;1.60;1.40;;;10.50;98.00;;;;;;5031720;28;20838;-68
2022/11/04 04:16:38;;;;;;;1.20;1.00;;;10.40;98.00;;;;;;5014298;28;20458;-68
2022/11/04 04:19:12;;;;;;;1.73;1.20;;;10.50;98.00;;;;;;5031574;28;20458;-69
2022/11/04 04:21:44;;;;;;;1.20;1.10;;;10.60;98.00;;;;;;5030894;28;20486;-68
2022/11/04 04:29:47;;;;;;;2.13;1.20;;;10.60;98.00;;;;;;5016779;28;20459;-68
2022/11/04 04:32:15;;;;;;;1.20;1.00;;;10.50;98.00;;;;;;5031318;28;20462;-68
2022/11/04 04:34:44;;;;;;;1.20;1.07;;;10.70;98.00;;;;;;5031182;28;20462;-68
2022/11/04 04:37:20;;;;;;;1.20;1.10;;;10.70;98.00;;;;;;5031332;28;20463;-68
2022/11/04 04:45:41;;;;;;;1.77;1.30;;;10.40;98.00;;;;;;5016614;28;20556;-68
2022/11/04 04:48:10;;;;;;;1.20;1.20;;;10.30;98.00;;;;;;5031564;28;20864;-68
2022/11/04 04:50:42;;;;;;;1.10;1.00;;;10.20;98.00;;;;;;5031368;28;20516;-68
2022/11/04 04:53:09;;;;;;;1.80;1.27;;;10.30;98.00;;;;;;5031236;28;20446;-68
2022/11/04 04:55:37;;;;;;;1.30;1.10;;;10.30;98.00;;;;;;5031159;28;20459;-68
2022/11/04 04:58:05;;;;;;;1.37;1.23;;;10.30;98.00;;;;;;5013566;28;20866;-68
2022/11/04 05:00:32;;;;;;;1.30;1.10;;;10.20;98.00;;;;;;5013620;28;20483;-68
2022/11/04 05:02:59;;;;;;;1.20;1.10;;;10.10;98.00;;;;;;5031046;28;21028;-68
2022/11/04 05:05:27;;;;;;;1.27;1.03;;;10.10;98.00;;;;;;5030968;28;20463;-68
2022/11/04 05:07:55;;;;;;;4.90;1.17;;;10.20;98.00;;;;;;5030823;28;20810;-69
2022/11/04 05:10:22;;;;;;;1.63;1.20;;;10.10;98.00;;;;;;5030872;28;21074;-68
2022/11/04 05:15:36;;;;;;;1.70;1.27;;;10.30;98.00;;;;;;5031040;28;20440;-68
2022/11/04 05:18:03;;;;;;;1.77;1.20;;;10.20;98.00;;;;;;5013777;28;20968;-68
2022/11/04 05:20:32;;;;;;;1.90;1.10;;;10.10;98.00;;;;;;5030939;28;20872;-68
2022/11/04 05:23:01;;;;;;;2.00;1.33;;;10.00;98.00;;;;;;5030733;28;20579;-68
2022/11/04 05:25:28;;;;;;;1.53;1.33;;;9.90;98.00;;;;;;5030864;28;20457;-68
2022/11/04 05:28:01;;;;;;;1.20;1.00;;;9.90;98.00;;;;;;5030825;28;20516;-68
2022/11/04 05:30:29;;;;;;;1.13;0.90;;;9.80;98.00;;;;;;5030919;28;20541;-68
2022/11/04 05:32:56;;;;;;;1.20;1.10;;;9.70;98.00;;;;;;5031870;28;20473;-68
2022/11/04 05:35:23;;;;;;;1.20;1.13;;;9.70;98.00;;;;;;5034846;28;20976;-68
2022/11/04 05:37:50;;;;;;;1.20;1.00;;;9.70;98.00;;;;;;5034812;28;20450;-68
2022/11/04 05:40:18;;;;;;;1.40;1.13;;;9.70;98.00;;;;;;5035080;28;20812;-69
2022/11/04 05:42:46;;;;;;;1.70;1.10;;;9.70;98.00;;;;;;5034206;28;20487;-68
2022/11/04 05:45:20;;;;;;;1.20;1.00;;;9.70;98.00;;;;;;5017072;28;20462;-68
2022/11/04 05:47:47;;;;;;;1.50;1.00;;;9.70;98.00;;;;;;5034446;28;20460;-68
2022/11/04 05:50:15;;;;;;;1.43;1.20;;;9.70;98.00;;;;;;5034412;28;20459;-69
2022/11/04 05:52:42;;;;;;;2.10;1.33;;;9.70;98.00;;;;;;5034231;28;20473;-68
2022/11/04 05:55:09;;;;;;;1.33;1.10;;;9.80;98.00;;;;;;5034363;28;20464;-68
2022/11/04 05:57:37;;;;;;;1.30;1.00;;;9.60;98.00;;;;;;5034178;28;20459;-68
2022/11/04 06:00:05;;;;;;;1.40;1.03;;;9.50;98.00;;;;;;5034254;28;20884;-68
2022/11/04 06:02:33;;;;;;;1.97;1.30;;;9.60;98.00;;;;;;5033952;28;20585;-68
2022/11/04 06:05:00;;;;;;;1.70;1.00;;;9.70;98.00;;;;;;5034116;28;20964;-68
2022/11/04 06:07:29;;;;;;;1.20;1.00;;;9.70;98.00;;;;;;5034057;28;20543;-68
2022/11/04 06:09:56;;;;;;;1.30;1.00;;;9.60;98.00;;;;;;5016473;28;20469;-68
2022/11/04 06:12:23;;;;;;;1.20;1.20;;;9.50;98.00;;;;;;5034002;28;20945;-68
2022/11/04 06:14:52;;;;;;;1.30;1.00;;;9.50;98.00;;;;;;5033813;28;20463;-68
2022/11/04 06:17:22;;;;;;;1.40;1.20;;;9.40;98.00;;;;;;5016418;28;20472;-68
2022/11/04 06:19:50;;;;;;;1.50;1.07;;;9.40;98.00;;;;;;5033798;28;20463;-68
2022/11/04 06:22:19;;;;;;;1.57;1.20;;;9.50;98.00;;;;;;5033784;28;20486;-68
2022/11/04 06:24:46;;;;;;;3.23;2.07;;;9.40;98.00;;;;;;5033636;28;20541;-68
2022/11/04 06:27:13;;;;;;;3.67;1.93;;;9.40;98.00;;;;;;5033961;28;20464;-68
2022/11/04 06:29:41;;;;;;;2.70;1.50;;;9.40;98.00;;;;;;5033948;28;20459;-68
2022/11/04 06:32:11;;;;;;;1.93;1.23;;;9.40;98.00;;;;;;5033939;28;20469;-68
2022/11/04 06:34:38;;;;;;;2.60;1.70;;;9.50;98.00;;;;;;5033586;28;20482;-68
2022/11/04 06:37:05;;;;;;;4.10;1.77;;;9.50;98.00;;;;;;5034177;28;20454;-68
2022/11/04 06:39:32;;;;;;;4.67;2.20;;;9.40;98.00;;;;;;5034421;28;20538;-68
2022/11/04 06:42:03;;;;;;;3.10;1.40;;;9.60;98.00;;;;;;5033543;28;20540;-68
2022/11/04 06:44:30;;;;;;;1.67;1.20;;;9.60;98.00;;;;;;5033843;28;20948;-68
2022/11/04 06:46:57;;;;;;;1.67;1.20;;;9.50;98.00;;;;;;5034035;28;20791;-68
2022/11/04 06:49:26;;;;;;;1.40;1.30;;;9.70;98.00;;;;;;5033293;28;20462;-69
2022/11/04 06:51:53;;;;;;;1.30;1.10;;;9.60;98.00;;;;;;5033508;28;20455;-68
2022/11/04 06:54:20;;;;;;;1.90;1.30;;;9.60;98.00;;;;;;5033193;28;20465;-68
2022/11/04 06:56:47;;;;;;;1.63;1.30;;;9.50;98.00;;;;;;5015853;28;20450;-68
2022/11/04 06:59:17;;;;;;;1.50;1.30;;;9.50;98.00;;;;;;5033176;28;20462;-68
2022/11/04 07:01:44;;;;;;;2.63;1.77;;;9.50;98.00;;;;;;5015523;28;21001;-69
2022/11/04 07:04:11;;;;;;;1.20;1.10;;;9.50;98.00;;;;;;5033154;28;20463;-66
2022/11/04 07:06:42;;;;;;;1.63;1.23;;;9.40;98.00;;;;;;5031693;28;20471;-65
2022/11/04 07:09:11;;;;;;;4.57;1.73;;;9.50;98.00;;;;;;5032915;28;20886;-66
2022/11/04 07:11:38;;;;;;;1.30;1.20;;;9.50;98.00;;;;;;5032951;28;20458;-65
2022/11/04 07:14:05;;;;;;;2.17;1.40;;;9.50;98.00;;;;;;5032958;28;20953;-66
2022/11/04 07:16:32;;;;;;;1.40;1.30;;;9.50;98.00;;;;;;5032827;28;20459;-66
2022/11/04 07:18:59;;;;;;;1.67;1.37;;;9.40;98.00;;;;;;5032633;28;20512;-65
2022/11/04 07:21:27;;;;;;;1.40;1.20;;;9.40;98.00;;;;;;5032816;28;20454;-65
2022/11/04 07:23:55;;;;;;;2.50;1.33;;;9.50;98.00;;;;;;5032579;28;21036;-66
2022/11/04 07:26:22;;;;;;;1.50;1.40;;;9.60;98.00;;;;;;5032954;28;20505;-65
2022/11/04 07:28:49;;;;;;;2.20;1.60;;;9.80;98.00;;;;;;5033013;28;20834;-65
2022/11/04 07:31:17;;;;;;;1.90;1.67;;;9.80;98.00;;;;;;5032694;28;20475;-65
2022/11/04 07:33:48;;;;;;;1.83;1.40;;;9.80;98.00;;;;;;5032437;28;21006;-65
2022/11/04 07:36:17;;;;;;;2.20;1.60;;;9.80;98.00;;;;;;5032365;28;20545;-66
2022/11/04 07:38:44;;;;;;;2.77;1.57;;;9.70;98.00;;;;;;5032131;28;21188;-65
2022/11/04 07:41:13;;;;;;;2.70;1.70;;;9.60;98.00;;;;;;5032336;28;20970;-65
2022/11/04 07:43:41;;;;;;;3.03;2.17;;;9.60;98.00;;;;;;5032107;28;20537;-65
2022/11/04 07:46:11;;;;;;;2.07;1.50;;;9.70;98.00;;;;;;5014993;28;20463;-65
2022/11/04 07:48:39;;;;;;;2.33;1.70;;;9.70;98.00;;;;;;5032199;28;20984;-66
2022/11/04 07:51:08;;;;;;;2.03;1.60;;;9.80;98.00;;;;;;5032735;28;20455;-66
2022/11/04 07:53:35;;;;;;;1.67;1.60;;;10.00;98.00;;;;;;5031996;28;20842;-65
2022/11/04 07:56:04;;;;;;;2.47;1.60;;;10.00;98.00;;;;;;5031211;28;20454;-66
2022/11/04 07:58:32;;;;;;;1.83;1.47;;;9.90;98.00;;;;;;5031885;28;20489;-66
2022/11/04 08:01:00;;;;;;;1.83;1.60;;;9.90;98.00;;;;;;5032054;28;20487;-66
2022/11/04 08:03:28;;;;;;;3.37;1.97;;;9.90;98.00;;;;;;5031858;28;20497;-65
2022/11/04 08:05:56;;;;;;;2.73;1.77;;;9.90;98.00;;;;;;5031848;28;20464;-64
2022/11/04 08:08:24;;;;;;;2.67;1.50;;;10.00;98.00;;;;;;5031848;28;21029;-66
2022/11/04 08:10:55;;;;;;;2.30;1.50;;;10.10;98.00;;;;;;5014579;28;20507;-65
2022/11/04 08:13:22;;;;;;;1.57;1.40;;;10.20;98.00;;;;;;5031577;28;20467;-65
2022/11/04 08:15:50;;;;;;;2.30;1.60;;;10.20;98.00;;;;;;5031670;28;20525;-65
2022/11/04 08:18:18;;;;;;;1.93;1.60;;;10.40;98.00;;;;;;5031683;28;20459;-66
2022/11/04 08:20:48;;;;;;;2.50;1.90;;;10.60;98.00;;;;;;5028972;28;20459;-66
2022/11/04 08:23:16;;;;;;;6.13;1.60;;;10.60;98.00;;;;;;5029166;28;20784;-65
2022/11/04 08:25:43;;;;;;;3.20;2.13;;;10.70;98.00;;;;;;5028966;28;20458;-65
2022/11/04 08:28:16;;;;;;;3.00;1.93;;;10.70;98.00;;;;;;5028925;28;20821;-66
2022/11/04 08:30:53;;;;;;;2.97;1.60;;;10.70;98.00;;;;;;5028622;28;20457;-66
2022/11/04 08:33:20;;;;;;;2.67;1.97;;;10.90;98.00;;;;;;5029241;28;20460;-66
2022/11/04 08:35:47;;;;;;;2.00;1.50;;;11.10;98.00;;;;;;5011909;28;20469;-66
2022/11/04 08:38:14;;;;;;;3.23;1.87;;;11.20;98.00;;;;;;5029426;28;21137;-66
2022/11/04 08:40:42;;;;;;;3.57;2.17;;;11.10;98.00;;;;;;5029469;28;20452;-65
2022/11/04 08:43:09;;;;;;;4.27;1.90;;;11.20;98.00;;;;;;5029266;28;20501;-65
2022/11/04 08:45:40;;;;;;;5.20;2.23;;;11.20;98.00;;;;;;5029314;28;20451;-64
2022/11/04 08:48:08;;;;;;;2.43;1.70;;;11.20;98.00;;;;;;5029648;28;20471;-65
2022/11/04 08:50:36;;;;;;;2.97;2.20;;;11.30;98.00;;;;;;5026934;28;20461;-65
2022/11/04 08:53:03;;;;;;;3.87;2.27;;;11.40;98.00;;;;;;5028605;28;20521;-64
2022/11/04 08:55:31;;;;;;;2.20;1.90;;;11.40;98.00;;;;;;5029099;28;20541;-65
2022/11/04 08:57:58;;;;;;;2.07;1.57;;;11.30;98.00;;;;;;5029326;28;20463;-64
2022/11/04 09:00:26;;;;;;;1.97;1.67;;;11.20;98.00;;;;;;5029315;28;20449;-65
2022/11/04 09:02:54;;;;;;;2.17;1.70;;;11.20;98.00;;;;;;5029152;28;20850;-65
2022/11/04 09:05:23;;;;;;;2.60;1.60;;;11.10;98.00;;;;;;5029548;28;20497;-65
2022/11/04 09:07:50;;;;;;;3.13;2.07;;;11.30;98.00;;;;;;5031960;28;20461;-65
2022/11/04 09:10:17;;;;;;;2.40;1.60;;;11.40;98.00;;;;;;5033579;28;20796;-64
2022/11/04 09:12:45;;;;;;;5.93;2.53;;;11.50;98.00;;;;;;5033240;28;20481;-65
2022/11/04 09:15:14;;;;;;;2.67;1.60;;;11.70;98.00;;;;;;5032679;28;20472;-65
2022/11/04 09:17:43;;;;;;;1.83;1.40;;;11.80;98.00;;;;;;5032564;28;20495;-65
2022/11/04 09:20:12;;;;;;;2.37;1.47;;;11.80;98.00;;;;;;5033245;28;20450;-65
2022/11/04 09:22:40;;;;;;;2.23;1.77;;;12.00;98.00;;;;;;5032970;28;20581;-65
2022/11/04 09:25:10;;;;;;;4.00;1.90;;;12.00;98.00;;;;;;5033085;28;20458;-65
2022/11/04 09:27:39;;;;;;;3.03;1.60;;;12.00;98.00;;;;;;5032680;28;20460;-64
2022/11/04 09:30:07;;;;;;;2.47;1.40;;;11.90;98.00;;;;;;5032434;28;20461;-64
2022/11/04 09:32:34;;;;;;;1.30;1.20;;;11.90;98.00;;;;;;5032369;28;20480;-64
2022/11/04 09:35:01;;;;;;;1.80;1.30;;;12.00;98.00;;;;;;5032551;28;20996;-65
2022/11/04 09:37:28;;;;;;;1.40;1.10;;;11.90;98.00;;;;;;5032478;28;20455;-65
2022/11/04 09:39:57;;;;;;;2.63;1.63;;;11.90;98.00;;;;;;5032695;28;20459;-64
2022/11/04 09:42:47;;;;;;;1.50;1.30;;;12.00;98.00;;;;;;5021743;28;20502;-65
2022/11/04 09:45:17;;;;;;;2.50;1.60;;;12.20;98.00;;;;;;5032901;28;20532;-64
2022/11/04 09:47:48;;;;;;;2.37;1.57;;;12.30;98.00;;;;;;5032451;28;20461;-65
2022/11/04 09:50:22;;;;;;;1.60;1.27;;;12.40;98.00;;;;;;5029848;28;20459;-65
2022/11/04 09:52:55;;;;;;;1.47;1.23;;;12.40;98.00;;;;;;5024640;28;20464;-65
2022/11/04 09:55:31;;;;;;;1.20;1.20;;;12.50;98.00;;;;;;5032191;28;20829;-66
2022/11/04 09:57:58;;;;;;;2.73;1.70;;;12.70;98.00;;;;;;5031925;28;20468;-66
2022/11/04 10:00:26;;;;;;;2.40;1.87;;;12.80;98.00;;;;;;5032169;28;20467;-65
2022/11/04 10:03:10;;;;;;;1.97;1.77;;;12.70;98.00;;;;;;5032170;28;20559;-67
2022/11/04 10:05:52;;;;;;;5.50;1.90;;;12.60;98.00;;;;;;5032211;28;20968;-67
2022/11/04 10:08:35;;;;;;;2.20;1.60;;;12.60;98.00;;;;;;5032292;28;20458;-67
2022/11/04 10:11:10;;;;;;;2.83;1.87;;;12.70;98.00;;;;;;5032612;28;20827;-67
2022/11/04 10:13:50;;;;;;;2.93;1.67;;;12.80;98.00;;;;;;5032251;28;20457;-66
2022/11/04 10:16:27;;;;;;;2.03;1.30;;;12.80;98.00;;;;;;5031892;28;20460;-66
2022/11/04 10:19:35;;;;;;;2.90;2.03;;;12.90;98.00;;;;;;5031109;28;20877;-66
2022/11/04 10:22:10;;;;;;;1.63;1.50;;;12.90;98.00;;;;;;4996089;28;20479;-66
2022/11/04 10:24:42;;;;;;;2.27;1.30;;;13.00;98.00;;;;;;5031554;28;20490;-66
2022/11/04 10:27:17;;;;;;;1.67;1.30;;;13.10;98.00;;;;;;5031632;28;20555;-66
2022/11/04 10:29:47;;;;;;;2.60;1.37;;;13.20;98.00;;;;;;5031977;28;20478;-67
2022/11/04 10:32:22;;;;;;;1.87;1.23;;;13.10;98.00;;;;;;5031728;28;20472;-68
2022/11/04 10:34:53;;;;;;;1.40;1.23;;;13.20;98.00;;;;;;5024040;28;20458;-64
2022/11/04 10:37:24;;;;;;;2.17;1.70;;;13.20;98.00;;;;;;5031722;28;21105;-66
2022/11/04 10:40:06;;;;;;;2.10;1.33;;;13.30;98.00;;;;;;5030692;28;20460;-65
2022/11/04 10:42:35;;;;;;;1.60;1.33;;;13.40;98.00;;;;;;5031512;28;20466;-66
2022/11/04 10:45:02;;;;;;;2.47;1.50;;;13.50;98.00;;;;;;5031578;28;20460;-66
2022/11/04 10:47:43;;;;;;;3.30;1.40;;;13.50;98.00;;;;;;5031386;28;20463;-65
2022/11/04 10:50:23;;;;;;;1.83;1.40;;;13.60;98.00;;;;;;5029613;28;20461;-65
2022/11/04 10:52:52;;;;;;;1.80;1.30;;;13.60;98.00;;;;;;5031291;28;20555;-66
2022/11/04 10:55:30;;;;;;;2.70;1.27;;;13.70;98.00;;;;;;5032093;28;20462;-65
2022/11/04 10:57:59;;;;;;;1.60;1.20;;;13.90;98.00;;;;;;5031707;28;20471;-65
2022/11/04 11:00:35;;;;;;;1.90;1.30;;;14.00;98.00;;;;;;5031523;28;20490;-66
2022/11/04 11:03:02;;;;;;;1.67;1.20;;;14.10;98.00;;;;;;5031156;28;21187;-66
2022/11/04 11:05:30;;;;;;;1.40;1.20;;;14.10;98.00;;;;;;5031417;28;20461;-66
2022/11/04 11:07:58;;;;;;;3.63;1.57;;;14.40;98.00;;;;;;5030985;28;20470;-66
2022/11/04 11:10:27;;;;;;;2.23;1.47;;;14.50;98.00;;;;;;5031102;28;20514;-66
2022/11/04 11:13:01;;;;;;;1.50;1.13;;;14.70;98.00;;;;;;5030782;28;20820;-66
2022/11/04 11:15:33;;;;;;;1.50;1.30;;;14.80;98.00;;;;;;5030985;28;20995;-65
2022/11/04 11:18:14;;;;;;;1.50;1.23;;;14.80;98.00;;;;;;5030082;28;20463;-66
2022/11/04 11:20:41;;;;;;;2.13;1.40;;;14.80;98.00;;;;;;5011619;28;20478;-66
2022/11/04 11:23:34;;;;;;;1.70;1.30;;;14.90;98.00;;;;;;5011570;28;20530;-66
2022/11/04 11:26:02;;;;;;;1.40;1.40;;;14.90;98.00;;;;;;5011545;28;20468;-65
2022/11/04 11:28:36;;;;;;;1.70;1.40;;;14.60;98.00;;;;;;5010223;28;20463;-67
2022/11/04 11:31:10;;;;;;;1.50;1.23;;;14.30;98.00;;;;;;5011115;28;20467;-67
2022/11/04 11:33:41;;;;;;;2.17;1.37;;;14.30;98.00;;;;;;5011236;28;20469;-66
2022/11/04 11:36:14;;;;;;;2.80;1.40;;;14.30;98.00;;;;;;5011900;28;20512;-66
2022/11/04 11:38:55;;;;;;;1.20;1.13;;;14.30;98.00;;;;;;5010955;28;20469;-67
2022/11/04 11:41:30;;;;;;;1.67;1.17;;;14.10;98.00;;;;;;5010835;28;20473;-67
2022/11/04 11:44:01;;;;;;;1.43;1.20;;;14.30;98.00;;;;;;5031101;28;20487;-64
2022/11/04 11:46:31;;;;;;;3.50;1.30;;;14.40;98.00;;;;;;5030929;28;20468;-65
2022/11/04 11:49:01;;;;;;;1.53;1.30;;;14.50;98.00;;;;;;5028693;28;20940;-64
2022/11/04 11:51:30;;;;;;;1.53;1.30;;;14.50;98.00;;;;;;5027646;28;20463;-65
2022/11/04 11:54:14;;;;;;;1.50;1.30;;;14.40;98.00;;;;;;5028127;28;20519;-64
2022/11/04 11:56:43;;;;;;;1.40;1.33;;;14.30;98.00;;;;;;5030090;28;21096;-64
2022/11/04 11:59:31;;;;;;;1.37;1.30;;;14.30;98.00;;;;;;5011090;28;20464;-64
2022/11/04 12:02:13;;;;;;;1.80;1.20;;;14.10;98.00;;;;;;5029847;28;20973;-64
2022/11/04 12:04:42;;;;;;;2.03;1.53;;;14.00;98.00;;;;;;5028580;28;20495;-65
2022/11/04 12:07:20;;;;;;;2.60;1.60;;;14.00;98.00;;;;;;5029649;28;20858;-64
2022/11/04 12:09:53;;;;;;;2.10;1.47;;;14.00;98.00;;;;;;5028980;28;20819;-65
2022/11/04 12:12:34;;;;;;;1.20;1.10;;;14.00;98.00;;;;;;5029832;28;20459;-65
2022/11/04 12:15:18;;;;;;;1.53;1.47;;;14.10;98.00;;;;;;5028429;28;20832;-65
2022/11/04 12:17:57;;;;;;;1.73;1.27;;;14.10;98.00;;;;;;5029474;28;20463;-64
2022/11/04 12:20:37;;;;;;;1.83;1.30;;;14.30;98.00;;;;;;5027930;28;20971;-64
2022/11/04 12:23:12;;;;;;;2.33;1.30;;;14.60;98.00;;;;;;5029826;28;20467;-64
2022/11/04 12:25:47;;;;;;;1.53;1.20;;;14.60;98.00;;;;;;5028579;28;20458;-65
2022/11/04 12:28:27;;;;;;;1.30;1.30;;;14.60;98.00;;;;;;5029421;28;20484;-66
2022/11/04 12:31:10;;;;;;;1.53;1.30;;;14.70;98.00;;;;;;5027998;28;20460;-65
2022/11/04 12:33:42;;;;;;;1.70;1.50;;;15.00;98.00;;;;;;5029084;28;20889;-65
2022/11/04 12:36:31;;;;;;;1.40;1.30;;;15.10;98.00;;;;;;5027949;28;20475;-65
2022/11/04 12:39:16;;;;;;;1.93;1.37;;;15.20;98.00;;;;;;5029354;28;20965;-64
2022/11/04 12:41:56;;;;;;;1.70;1.53;;;14.90;98.00;;;;;;5028144;28;20511;-64
2022/11/04 12:44:32;;;;;;;1.83;1.30;;;14.60;98.00;;;;;;5028850;28;20508;-65
2022/11/04 12:47:19;;;;;;;1.77;1.37;;;14.40;98.00;;;;;;5028493;28;20959;-65
2022/11/04 12:50:12;;;;;;;1.70;1.20;;;14.60;98.00;;;;;;5001773;28;20975;-64
2022/11/04 12:52:51;;;;;;;1.70;1.20;;;14.50;98.00;;;;;;5028263;28;20464;-66
2022/11/04 12:55:35;;;;;;;1.43;1.40;;;14.40;98.00;;;;;;5027682;28;21224;-64
2022/11/04 12:58:15;;;;;;;1.70;1.30;;;14.40;98.00;;;;;;5029353;28;20550;-65
2022/11/04 13:00:48;;;;;;;1.90;1.30;;;14.30;98.00;;;;;;5020096;28;20462;-65
2022/11/04 13:03:22;;;;;;;1.20;1.10;;;14.20;98.00;;;;;;5011557;28;21046;-65
2022/11/04 13:05:53;;;;;;;2.60;1.53;;;14.10;98.00;;;;;;5028329;28;20469;-65
2022/11/04 13:08:25;;;;;;;1.50;1.20;;;14.10;98.00;;;;;;5030209;28;20468;-65
2022/11/04 13:10:58;;;;;;;1.73;1.43;;;14.30;98.00;;;;;;5031710;28;21130;-65
2022/11/04 13:13:32;;;;;;;1.57;1.27;;;14.30;98.00;;;;;;5031456;28;20535;-65
2022/11/04 13:16:05;;;;;;;1.50;1.20;;;14.40;98.00;;;;;;5031878;28;20799;-64
2022/11/04 13:18:37;;;;;;;4.77;1.60;;;14.40;98.00;;;;;;5031529;28;20938;-65
2022/11/04 13:21:08;;;;;;;2.40;1.47;;;14.30;98.00;;;;;;5031798;28;20463;-65
2022/11/04 13:23:40;;;;;;;13.90;1.73;;;14.30;98.00;;;;;;5031554;28;20508;-64
2022/11/04 13:26:13;;;;;;;1.63;1.43;;;14.40;98.00;;;;;;5031733;28;21154;-65
2022/11/04 13:28:40;;;;;;;1.60;1.30;;;14.50;98.00;;;;;;5031717;28;20468;-65
2022/11/04 13:31:14;;;;;;;2.17;1.57;;;14.40;98.00;;;;;;5031364;28;20467;-65
2022/11/04 13:33:50;;;;;;;1.40;1.30;;;14.50;98.00;;;;;;5031755;28;20468;-68
2022/11/04 13:36:30;;;;;;;1.90;1.37;;;14.60;98.00;;;;;;5014646;28;20471;-65
2022/11/04 13:39:01;;;;;;;2.27;1.60;;;14.60;98.00;;;;;;5031602;28;20982;-65
2022/11/04 13:41:44;;;;;;;2.10;1.27;;;14.60;98.00;;;;;;5031598;28;20511;-65